LIRILIRQ

Guest
Details From LIRI - Pontecagnano
To LIRQ - Firenze
Flight Number -
Tags Generated
Created
Modified
Stats Distance 253 nm / 469 km
Max Altitude 0 ft / 0 m
Waypoints 3
Social Downloads 0
Likes 0
Share VATSIM

Download

Looking for another format? Having issues loading an existing format? Contact us
Advertisement - Login to hide

Notes

Generated

Route

LIRI PRT LIRQ

ID Type Via Altitude Latitude Longitude Leg Dist Tot Dist Heading (true) Name
O LIRI APT - 0 ft / 0 m 40.61513˚ 14.90434˚ - 0 nm - -
PRT VOR - 0 ft / 0 m 43.80994˚ 11.20048˚ 252 nm 252 nm 321° / 318° PERETOLA VOR-DME
O LIRQ APT - 0 ft / 0 m 43.80507˚ 11.19741˚ 0 nm 253 nm 204° / 204° -

Altitude Profile

Advertisement - Login to hide

Weather


0- 5 10 15 20 25 30 35+ Temperature / ° C

Clouds and Precipitation
Forecast for 2018-05-26 18:00 UTC. Updated an hour ago

Ground ~20,000 ft ~40,000 ft Winds

LIRI

Details ICAO LIRI (QSR)
Name Pontecagnano
Region Italy
Timezone Europe/Rome (UTC+2.0)
Stats Elevation 131 ft / 40 m (AMSL)
Location 40.618691° 14.910538°
Runways 1
Magnetic Variation 3.441° E

METAR

LIRI 261650Z 19005KT 7000 SCT020 23/20 Q1017

Decode

TAF

Not found

Departure Runways

ID Width Length Bearing (true) Bearing (mag) Surface Threshold Offset Overrun Length
05 148 ft / 45 m 5,259 ft / 1,603 m 52.06° 48.62° Asphalt 0 ft / 0 m 0 ft / 0 m
23 148 ft / 45 m 5,259 ft / 1,603 m 232.07° 228.63° Asphalt 512 ft / 156 m 0 ft / 0 m

LIRQ

Details ICAO LIRQ (FLR)
Name Firenze
Region Italy
Timezone Europe/Rome (UTC+2.0)
Stats Elevation 142 ft / 43 m (AMSL)
Location 43.809984° 11.205118°
Runways 1
Magnetic Variation 2.924° E

METAR

LIRQ 261820Z 01003KT CAVOK 28/17 Q1017

Decode

TAF

TAF LIRQ 261700Z 2618/2718 04007KT 9999 SCT030

Decode

Destination Runways

ID Width Length Bearing (true) Bearing (mag) Surface Threshold Offset Overrun Length
05 98 ft / 30 m 5,420 ft / 1,652 m 48.52° 45.60° Asphalt 492 ft / 150 m 0 ft / 0 m
23 98 ft / 30 m 5,420 ft / 1,652 m 228.53° 225.61° Asphalt 2,287 ft / 697 m 0 ft / 0 m

Approach Navaids

Runway Type Ident Frequency Range Bearing (true) Bearing (mag) Slope Elevation
05 Localiser IFZ 110.30 MHz 18 nm / 33 km 48.10° 45.18° - 131 ft / 40 m (AMSL)
05 Glidescope IFZ 110.30 MHz 10 nm / 19 km 47.00° 44.08° 3.00° 144 ft / 44 m (AMSL)
05 DME IFZ 110.30 MHz 18 nm / 33 km - - - 144 ft / 44 m (AMSL)